sensor_id;sensor_type;location;lat;lon;timestamp;pressure;altitude;pressure_sealevel;temperature;humidity
28630;BME280;15817;42.130;24.762;2023-06-22T00:00:59;100042.22;;;25.73;71.02
28630;BME280;15817;42.130;24.762;2023-06-22T00:03:28;100046.53;;;25.77;71.84
28630;BME280;15817;42.130;24.762;2023-06-22T00:05:54;100041.41;;;25.73;71.29
28630;BME280;15817;42.130;24.762;2023-06-22T00:08:20;100034.47;;;25.67;71.15
28630;BME280;15817;42.130;24.762;2023-06-22T00:10:46;100041.00;;;25.65;70.98
28630;BME280;15817;42.130;24.762;2023-06-22T00:13:12;100059.88;;;25.68;71.08
28630;BME280;15817;42.130;24.762;2023-06-22T00:15:40;100045.84;;;25.59;70.63
28630;BME280;15817;42.130;24.762;2023-06-22T00:18:08;100039.81;;;25.54;70.80
28630;BME280;15817;42.130;24.762;2023-06-22T00:20:34;100056.84;;;25.58;70.73
28630;BME280;15817;42.130;24.762;2023-06-22T00:23:04;100054.72;;;25.49;71.55
28630;BME280;15817;42.130;24.762;2023-06-22T00:25:36;100059.84;;;25.53;71.96
28630;BME280;15817;42.130;24.762;2023-06-22T00:28:03;100068.03;;;25.53;71.99
28630;BME280;15817;42.130;24.762;2023-06-22T00:30:30;100063.88;;;25.48;72.21
28630;BME280;15817;42.130;24.762;2023-06-22T00:32:57;100055.09;;;25.43;72.81
28630;BME280;15817;42.130;24.762;2023-06-22T00:35:23;100066.97;;;25.42;73.65
28630;BME280;15817;42.130;24.762;2023-06-22T00:37:58;100076.19;;;25.39;74.77
28630;BME280;15817;42.130;24.762;2023-06-22T00:40:30;100068.25;;;25.22;75.58
28630;BME280;15817;42.130;24.762;2023-06-22T00:42:57;100076.13;;;25.12;75.76
28630;BME280;15817;42.130;24.762;2023-06-22T00:45:26;100073.47;;;24.97;76.25
28630;BME280;15817;42.130;24.762;2023-06-22T00:47:57;100075.06;;;24.85;76.68
28630;BME280;15817;42.130;24.762;2023-06-22T00:50:26;100083.78;;;24.76;77.15
28630;BME280;15817;42.130;24.762;2023-06-22T00:52:55;100073.38;;;24.68;77.26
28630;BME280;15817;42.130;24.762;2023-06-22T00:55:22;100065.50;;;24.64;77.56
28630;BME280;15817;42.130;24.762;2023-06-22T00:57:49;100068.03;;;24.67;77.53
28630;BME280;15817;42.130;24.762;2023-06-22T01:00:15;100070.66;;;24.68;77.58
28630;BME280;15817;42.130;24.762;2023-06-22T01:02:43;100066.28;;;24.66;77.59
28630;BME280;15817;42.130;24.762;2023-06-22T01:05:18;100069.00;;;24.66;77.47
28630;BME280;15817;42.130;24.762;2023-06-22T01:13:34;100076.09;;;24.68;78.19
28630;BME280;15817;42.130;24.762;2023-06-22T01:18:32;100075.50;;;24.63;77.69
28630;BME280;15817;42.130;24.762;2023-06-22T01:21:03;100075.66;;;24.60;77.92
28630;BME280;15817;42.130;24.762;2023-06-22T01:26:18;100073.66;;;24.64;78.02
28630;BME280;15817;42.130;24.762;2023-06-22T01:28:53;100063.03;;;24.59;78.08
28630;BME280;15817;42.130;24.762;2023-06-22T01:31:25;100061.50;;;24.55;78.17
28630;BME280;15817;42.130;24.762;2023-06-22T01:33:55;100069.66;;;24.55;78.59
28630;BME280;15817;42.130;24.762;2023-06-22T01:36:22;100070.31;;;24.59;78.71
28630;BME280;15817;42.130;24.762;2023-06-22T01:38:49;100069.72;;;24.53;78.68
28630;BME280;15817;42.130;24.762;2023-06-22T01:41:19;100053.88;;;24.46;79.00
28630;BME280;15817;42.130;24.762;2023-06-22T01:43:47;100065.53;;;24.48;79.09
28630;BME280;15817;42.130;24.762;2023-06-22T01:46:13;100048.53;;;24.44;78.90
28630;BME280;15817;42.130;24.762;2023-06-22T01:48:40;100047.56;;;24.45;79.43
28630;BME280;15817;42.130;24.762;2023-06-22T01:51:06;100057.28;;;24.49;79.69
28630;BME280;15817;42.130;24.762;2023-06-22T01:53:32;100051.34;;;24.43;79.90
28630;BME280;15817;42.130;24.762;2023-06-22T01:56:00;100055.03;;;24.42;80.50
28630;BME280;15817;42.130;24.762;2023-06-22T01:58:29;100063.97;;;24.44;80.59
28630;BME280;15817;42.130;24.762;2023-06-22T02:01:17;100059.19;;;24.33;81.28
28630;BME280;15817;42.130;24.762;2023-06-22T02:04:19;100081.69;;;24.35;81.79
28630;BME280;15817;42.130;24.762;2023-06-22T02:06:51;100074.00;;;24.28;81.52
28630;BME280;15817;42.130;24.762;2023-06-22T02:09:21;100063.91;;;24.30;81.55
28630;BME280;15817;42.130;24.762;2023-06-22T02:11:48;100065.06;;;24.26;81.84
28630;BME280;15817;42.130;24.762;2023-06-22T02:14:19;100065.75;;;24.29;81.79
28630;BME280;15817;42.130;24.762;2023-06-22T02:16:45;100067.84;;;24.24;81.53
28630;BME280;15817;42.130;24.762;2023-06-22T02:19:11;100074.00;;;24.28;81.32
28630;BME280;15817;42.130;24.762;2023-06-22T02:21:37;100064.38;;;24.22;80.58
28630;BME280;15817;42.130;24.762;2023-06-22T02:24:04;100068.47;;;24.29;80.04
28630;BME280;15817;42.130;24.762;2023-06-22T02:26:30;100065.94;;;24.26;79.35
28630;BME280;15817;42.130;24.762;2023-06-22T02:28:57;100064.19;;;24.25;79.02
28630;BME280;15817;42.130;24.762;2023-06-22T02:31:23;100077.69;;;24.27;78.79
28630;BME280;15817;42.130;24.762;2023-06-22T02:33:58;100072.53;;;24.22;78.63
28630;BME280;15817;42.130;24.762;2023-06-22T02:36:24;100078.03;;;24.21;79.11
28630;BME280;15817;42.130;24.762;2023-06-22T02:38:52;100085.03;;;24.25;79.04
28630;BME280;15817;42.130;24.762;2023-06-22T02:41:19;100081.78;;;24.18;79.22
28630;BME280;15817;42.130;24.762;2023-06-22T02:43:48;100075.94;;;24.10;79.67
28630;BME280;15817;42.130;24.762;2023-06-22T02:46:14;100094.75;;;24.13;79.98
28630;BME280;15817;42.130;24.762;2023-06-22T02:48:41;100097.69;;;24.10;80.10
28630;BME280;15817;42.130;24.762;2023-06-22T02:51:07;100088.97;;;24.03;79.99
28630;BME280;15817;42.130;24.762;2023-06-22T02:53:35;100099.69;;;24.06;79.89
28630;BME280;15817;42.130;24.762;2023-06-22T02:56:02;100082.06;;;23.98;80.53
28630;BME280;15817;42.130;24.762;2023-06-22T02:58:33;100097.50;;;23.97;80.56
28630;BME280;15817;42.130;24.762;2023-06-22T03:01:06;100089.69;;;23.91;80.22
28630;BME280;15817;42.130;24.762;2023-06-22T03:03:34;100097.84;;;23.91;81.22
28630;BME280;15817;42.130;24.762;2023-06-22T03:06:00;100099.59;;;23.76;81.21
28630;BME280;15817;42.130;24.762;2023-06-22T03:08:29;100106.09;;;23.74;81.93
28630;BME280;15817;42.130;24.762;2023-06-22T03:10:56;100105.53;;;23.67;81.98
28630;BME280;15817;42.130;24.762;2023-06-22T03:13:22;100100.81;;;23.71;81.90
28630;BME280;15817;42.130;24.762;2023-06-22T03:15:50;100103.44;;;23.72;81.23
28630;BME280;15817;42.130;24.762;2023-06-22T03:18:16;100120.28;;;23.79;80.99
28630;BME280;15817;42.130;24.762;2023-06-22T03:20:42;100107.75;;;23.76;80.33
28630;BME280;15817;42.130;24.762;2023-06-22T03:23:08;100114.75;;;23.80;79.78
28630;BME280;15817;42.130;24.762;2023-06-22T03:25:37;100124.50;;;23.85;79.52
28630;BME280;15817;42.130;24.762;2023-06-22T03:28:06;100116.50;;;23.81;79.42
28630;BME280;15817;42.130;24.762;2023-06-22T03:30:32;100130.72;;;23.87;79.10
28630;BME280;15817;42.130;24.762;2023-06-22T03:33:00;100116.44;;;23.83;78.89
28630;BME280;15817;42.130;24.762;2023-06-22T03:35:26;100120.28;;;23.79;78.21
28630;BME280;15817;42.130;24.762;2023-06-22T03:37:51;100117.03;;;23.72;77.10
28630;BME280;15817;42.130;24.762;2023-06-22T03:40:17;100121.50;;;23.73;76.86
28630;BME280;15817;42.130;24.762;2023-06-22T03:42:43;100130.44;;;23.75;77.58
28630;BME280;15817;42.130;24.762;2023-06-22T03:45:09;100135.41;;;23.67;78.02
28630;BME280;15817;42.130;24.762;2023-06-22T03:47:35;100130.78;;;23.69;78.45
28630;BME280;15817;42.130;24.762;2023-06-22T03:50:01;100128.41;;;23.63;78.49
28630;BME280;15817;42.130;24.762;2023-06-22T03:52:29;100126.66;;;23.62;78.08
28630;BME280;15817;42.130;24.762;2023-06-22T03:54:55;100138.31;;;23.64;78.48
28630;BME280;15817;42.130;24.762;2023-06-22T03:57:21;100126.97;;;23.56;78.34
28630;BME280;15817;42.130;24.762;2023-06-22T03:59:47;100132.25;;;23.59;78.05
28630;BME280;15817;42.130;24.762;2023-06-22T04:02:15;100129.19;;;23.65;78.22
28630;BME280;15817;42.130;24.762;2023-06-22T04:04:41;100125.69;;;23.63;78.28
28630;BME280;15817;42.130;24.762;2023-06-22T04:07:07;100115.88;;;23.61;77.98
28630;BME280;15817;42.130;24.762;2023-06-22T04:09:34;100105.97;;;23.60;78.23
28630;BME280;15817;42.130;24.762;2023-06-22T04:12:00;100131.22;;;23.62;78.65
28630;BME280;15817;42.130;24.762;2023-06-22T04:14:28;100117.00;;;23.57;78.44
28630;BME280;15817;42.130;24.762;2023-06-22T04:16:54;100121.47;;;23.58;78.34
28630;BME280;15817;42.130;24.762;2023-06-22T04:19:20;100124.25;;;23.56;78.97
28630;BME280;15817;42.130;24.762;2023-06-22T04:21:49;100138.41;;;23.63;79.20
28630;BME280;15817;42.130;24.762;2023-06-22T04:24:15;100126.09;;;23.56;79.33
28630;BME280;15817;42.130;24.762;2023-06-22T04:26:41;100141.19;;;23.61;79.31
28630;BME280;15817;42.130;24.762;2023-06-22T04:29:10;100136.56;;;23.63;79.56
28630;BME280;15817;42.130;24.762;2023-06-22T04:31:37;100126.91;;;23.58;79.55
28630;BME280;15817;42.130;24.762;2023-06-22T04:34:04;100135.13;;;23.56;79.73
28630;BME280;15817;42.130;24.762;2023-06-22T04:36:38;100127.94;;;23.55;79.73
28630;BME280;15817;42.130;24.762;2023-06-22T04:39:08;100141.13;;;23.63;79.78
28630;BME280;15817;42.130;24.762;2023-06-22T04:41:38;100135.69;;;23.63;80.26
28630;BME280;15817;42.130;24.762;2023-06-22T04:44:18;100135.59;;;23.64;79.75
28630;BME280;15817;42.130;24.762;2023-06-22T04:46:51;100143.47;;;23.69;79.18
28630;BME280;15817;42.130;24.762;2023-06-22T04:49:21;100151.22;;;23.76;79.29
28630;BME280;15817;42.130;24.762;2023-06-22T04:51:48;100137.88;;;23.72;79.25
28630;BME280;15817;42.130;24.762;2023-06-22T04:54:14;100138.59;;;23.75;79.32
28630;BME280;15817;42.130;24.762;2023-06-22T04:57:00;100126.78;;;23.76;79.51
28630;BME280;15817;42.130;24.762;2023-06-22T04:59:27;100131.94;;;23.81;79.55
28630;BME280;15817;42.130;24.762;2023-06-22T05:01:59;100130.09;;;23.81;79.44
28630;BME280;15817;42.130;24.762;2023-06-22T05:04:35;100120.63;;;23.73;80.18
28630;BME280;15817;42.130;24.762;2023-06-22T05:07:27;100127.38;;;23.81;80.26
28630;BME280;15817;42.130;24.762;2023-06-22T05:09:52;100118.44;;;23.79;80.82
28630;BME280;15817;42.130;24.762;2023-06-22T05:12:18;100124.56;;;23.83;80.34
28630;BME280;15817;42.130;24.762;2023-06-22T05:14:44;100117.56;;;23.79;80.05
28630;BME280;15817;42.130;24.762;2023-06-22T05:17:10;100124.50;;;23.85;80.40
28630;BME280;15817;42.130;24.762;2023-06-22T05:19:40;100120.63;;;23.89;80.51
28630;BME280;15817;42.130;24.762;2023-06-22T05:22:14;100117.91;;;23.89;80.39
28630;BME280;15817;42.130;24.762;2023-06-22T05:24:43;100122.38;;;23.90;80.90
28630;BME280;15817;42.130;24.762;2023-06-22T05:27:09;100115.19;;;23.89;80.76
28630;BME280;15817;42.130;24.762;2023-06-22T05:29:42;100117.50;;;23.96;80.33
28630;BME280;15817;42.130;24.762;2023-06-22T05:32:10;100121.34;;;23.92;80.42
28630;BME280;15817;42.130;24.762;2023-06-22T05:34:36;100130.03;;;23.99;81.17
28630;BME280;15817;42.130;24.762;2023-06-22T05:37:05;100116.63;;;23.96;81.40
28630;BME280;15817;42.130;24.762;2023-06-22T05:39:31;100115.56;;;23.98;80.87
28630;BME280;15817;42.130;24.762;2023-06-22T05:41:57;100114.41;;;24.02;81.10
28630;BME280;15817;42.130;24.762;2023-06-22T05:44:23;100116.88;;;24.07;81.35
28630;BME280;15817;42.130;24.762;2023-06-22T05:46:48;100117.47;;;24.12;81.33
28630;BME280;15817;42.130;24.762;2023-06-22T05:49:15;100128.00;;;24.18;81.70
28630;BME280;15817;42.130;24.762;2023-06-22T05:51:42;100118.09;;;24.17;82.33
28630;BME280;15817;42.130;24.762;2023-06-22T05:54:08;100123.19;;;24.23;81.85
28630;BME280;15817;42.130;24.762;2023-06-22T05:56:34;100123.81;;;24.28;82.26
28630;BME280;15817;42.130;24.762;2023-06-22T05:59:01;100121.97;;;24.29;81.78
28630;BME280;15817;42.130;24.762;2023-06-22T06:01:27;100116.53;;;24.29;81.65
28630;BME280;15817;42.130;24.762;2023-06-22T06:04:04;100114.44;;;24.34;81.56
28630;BME280;15817;42.130;24.762;2023-06-22T06:06:34;100116.94;;;24.37;81.64
28630;BME280;15817;42.130;24.762;2023-06-22T06:09:05;100113.97;;;24.41;80.66
28630;BME280;15817;42.130;24.762;2023-06-22T06:11:36;100122.63;;;24.48;79.56
28630;BME280;15817;42.130;24.762;2023-06-22T06:14:05;100123.34;;;24.51;78.54
28630;BME280;15817;42.130;24.762;2023-06-22T06:16:42;100121.59;;;24.50;77.43
28630;BME280;15817;42.130;24.762;2023-06-22T06:19:08;100122.00;;;24.59;77.82
28630;BME280;15817;42.130;24.762;2023-06-22T06:21:34;100113.75;;;24.60;76.86
28630;BME280;15817;42.130;24.762;2023-06-22T06:23:59;100101.91;;;24.61;76.73
28630;BME280;15817;42.130;24.762;2023-06-22T06:26:25;100112.53;;;24.66;76.14
28630;BME280;15817;42.130;24.762;2023-06-22T06:28:56;100116.44;;;24.76;75.49
28630;BME280;15817;42.130;24.762;2023-06-22T06:31:30;100110.59;;;24.82;75.35
28630;BME280;15817;42.130;24.762;2023-06-22T06:33:58;100100.50;;;24.84;75.09
28630;BME280;15817;42.130;24.762;2023-06-22T06:36:24;100109.19;;;24.90;75.25
28630;BME280;15817;42.130;24.762;2023-06-22T06:38:50;100106.22;;;24.95;73.77
28630;BME280;15817;42.130;24.762;2023-06-22T06:41:16;100115.94;;;24.99;73.74
28630;BME280;15817;42.130;24.762;2023-06-22T06:43:48;100104.88;;;25.02;72.26
28630;BME280;15817;42.130;24.762;2023-06-22T06:46:14;100131.22;;;25.16;71.58
28630;BME280;15817;42.130;24.762;2023-06-22T06:48:45;100114.63;;;25.20;71.53
28630;BME280;15817;42.130;24.762;2023-06-22T06:51:17;100108.13;;;25.23;70.32
28630;BME280;15817;42.130;24.762;2023-06-22T06:53:50;100117.44;;;25.33;70.76
28630;BME280;15817;42.130;24.762;2023-06-22T06:56:16;100111.72;;;25.38;70.38
28630;BME280;15817;42.130;24.762;2023-06-22T06:59:00;100103.75;;;25.35;70.37
28630;BME280;15817;42.130;24.762;2023-06-22T07:01:26;100098.59;;;25.44;69.38
28630;BME280;15817;42.130;24.762;2023-06-22T07:03:58;100097.22;;;25.51;69.89
28630;BME280;15817;42.130;24.762;2023-06-22T07:06:23;100093.13;;;25.58;69.83
28630;BME280;15817;42.130;24.762;2023-06-22T07:08:55;100102.31;;;25.72;69.58
28630;BME280;15817;42.130;24.762;2023-06-22T07:11:21;100091.88;;;25.78;68.50
28630;BME280;15817;42.130;24.762;2023-06-22T07:13:49;100085.91;;;25.86;67.91
28630;BME280;15817;42.130;24.762;2023-06-22T07:16:14;100094.59;;;25.92;67.60
28630;BME280;15817;42.130;24.762;2023-06-22T07:18:40;100092.41;;;25.97;66.73
28630;BME280;15817;42.130;24.762;2023-06-22T07:21:06;100099.13;;;26.06;66.51
28630;BME280;15817;42.130;24.762;2023-06-22T07:23:38;100097.38;;;26.05;66.34
28630;BME280;15817;42.130;24.762;2023-06-22T07:26:04;100104.16;;;26.12;66.60
28630;BME280;15817;42.130;24.762;2023-06-22T07:28:31;100106.78;;;26.14;66.69
28630;BME280;15817;42.130;24.762;2023-06-22T07:31:08;100102.31;;;26.13;65.98
28630;BME280;15817;42.130;24.762;2023-06-22T07:33:34;100121.84;;;26.19;66.62
28630;BME280;15817;42.130;24.762;2023-06-22T07:36:00;100105.03;;;26.13;66.04
28630;BME280;15817;42.130;24.762;2023-06-22T07:38:26;100119.13;;;26.19;64.20
28630;BME280;15817;42.130;24.762;2023-06-22T07:40:51;100120.22;;;26.17;65.12
28630;BME280;15817;42.130;24.762;2023-06-22T07:43:20;100099.00;;;26.08;66.63
28630;BME280;15817;42.130;24.762;2023-06-22T07:45:50;100111.16;;;26.16;65.51
28630;BME280;15817;42.130;24.762;2023-06-22T07:48:20;100116.50;;;26.32;64.98
28630;BME280;15817;42.130;24.762;2023-06-22T07:50:51;100108.22;;;26.33;64.21
28630;BME280;15817;42.130;24.762;2023-06-22T07:53:28;100112.75;;;26.47;62.29
28630;BME280;15817;42.130;24.762;2023-06-22T07:55:57;100100.66;;;26.51;61.41
28630;BME280;15817;42.130;24.762;2023-06-22T07:58:23;100111.19;;;26.70;59.35
28630;BME280;15817;42.130;24.762;2023-06-22T08:00:51;100112.09;;;26.83;59.39
28630;BME280;15817;42.130;24.762;2023-06-22T08:03:20;100093.66;;;26.87;59.34
28630;BME280;15817;42.130;24.762;2023-06-22T08:05:56;100101.25;;;27.09;59.12
28630;BME280;15817;42.130;24.762;2023-06-22T08:08:22;100102.66;;;27.27;58.02
28630;BME280;15817;42.130;24.762;2023-06-22T08:10:47;100103.53;;;27.53;56.72
28630;BME280;15817;42.130;24.762;2023-06-22T08:13:23;100093.03;;;27.72;55.92
28630;BME280;15817;42.130;24.762;2023-06-22T08:15:48;100092.25;;;27.83;54.56
28630;BME280;15817;42.130;24.762;2023-06-22T08:18:14;100081.38;;;27.94;54.38
28630;BME280;15817;42.130;24.762;2023-06-22T08:20:42;100094.69;;;28.24;54.04
28630;BME280;15817;42.130;24.762;2023-06-22T08:23:13;100074.88;;;28.44;53.60
28630;BME280;15817;42.130;24.762;2023-06-22T08:25:45;100080.84;;;28.73;51.77
28630;BME280;15817;42.130;24.762;2023-06-22T08:28:11;100088.16;;;28.96;50.79
28630;BME280;15817;42.130;24.762;2023-06-22T08:30:38;100081.88;;;29.18;49.38
28630;BME280;15817;42.130;24.762;2023-06-22T08:33:04;100079.44;;;29.37;49.42
28630;BME280;15817;42.130;24.762;2023-06-22T08:35:30;100064.34;;;29.54;48.45
28630;BME280;15817;42.130;24.762;2023-06-22T08:37:56;100079.41;;;29.82;47.16
28630;BME280;15817;42.130;24.762;2023-06-22T08:40:22;100062.94;;;29.93;47.54
28630;BME280;15817;42.130;24.762;2023-06-22T08:42:51;100070.03;;;30.18;46.65
28630;BME280;15817;42.130;24.762;2023-06-22T08:45:20;100073.38;;;30.33;46.10
28630;BME280;15817;42.130;24.762;2023-06-22T08:47:46;100067.41;;;30.48;44.80
28630;BME280;15817;42.130;24.762;2023-06-22T08:50:12;100065.59;;;30.70;44.97
28630;BME280;15817;42.130;24.762;2023-06-22T08:52:40;100066.91;;;30.86;45.00
28630;BME280;15817;42.130;24.762;2023-06-22T08:55:16;100061.66;;;31.04;44.61
28630;BME280;15817;42.130;24.762;2023-06-22T08:57:42;100067.06;;;31.26;42.50
28630;BME280;15817;42.130;24.762;2023-06-22T09:00:08;100075.16;;;31.49;42.15
28630;BME280;15817;42.130;24.762;2023-06-22T09:02:48;100066.50;;;31.63;43.29
28630;BME280;15817;42.130;24.762;2023-06-22T09:05:16;100070.03;;;31.75;42.13
28630;BME280;15817;42.130;24.762;2023-06-22T09:07:45;100064.59;;;31.84;42.23
28630;BME280;15817;42.130;24.762;2023-06-22T09:10:14;100066.06;;;31.98;42.04
28630;BME280;15817;42.130;24.762;2023-06-22T09:12:40;100055.69;;;32.11;41.07
28630;BME280;15817;42.130;24.762;2023-06-22T09:15:06;100052.69;;;32.33;40.20
28630;BME280;15817;42.130;24.762;2023-06-22T09:17:35;100059.06;;;32.44;38.66
28630;BME280;15817;42.130;24.762;2023-06-22T09:20:09;100061.00;;;32.53;38.87
28630;BME280;15817;42.130;24.762;2023-06-22T09:22:37;100063.75;;;32.72;40.30
28630;BME280;15817;42.130;24.762;2023-06-22T09:25:03;100064.34;;;32.85;39.13
28630;BME280;15817;42.130;24.762;2023-06-22T09:27:32;100053.56;;;33.01;38.76
28630;BME280;15817;42.130;24.762;2023-06-22T09:29:57;100053.56;;;33.11;37.83
28630;BME280;15817;42.130;24.762;2023-06-22T09:32:24;100056.72;;;33.26;36.95
28630;BME280;15817;42.130;24.762;2023-06-22T09:34:53;100044.09;;;33.33;36.81
28630;BME280;15817;42.130;24.762;2023-06-22T09:37:19;100045.09;;;33.41;37.12
28630;BME280;15817;42.130;24.762;2023-06-22T09:39:45;100052.81;;;33.65;36.05
28630;BME280;15817;42.130;24.762;2023-06-22T09:42:11;100046.53;;;33.73;35.17
28630;BME280;15817;42.130;24.762;2023-06-22T09:44:38;100049.69;;;33.88;34.50
28630;BME280;15817;42.130;24.762;2023-06-22T09:47:04;100048.31;;;34.01;34.69
28630;BME280;15817;42.130;24.762;2023-06-22T09:49:30;100049.88;;;34.04;34.96
28630;BME280;15817;42.130;24.762;2023-06-22T09:51:59;100045.22;;;34.04;33.65
28630;BME280;15817;42.130;24.762;2023-06-22T09:54:25;100046.66;;;34.08;34.49
28630;BME280;15817;42.130;24.762;2023-06-22T09:56:51;100044.25;;;34.23;33.86
28630;BME280;15817;42.130;24.762;2023-06-22T09:59:17;100043.31;;;34.32;33.70
28630;BME280;15817;42.130;24.762;2023-06-22T10:01:42;100029.84;;;34.47;34.07
28630;BME280;15817;42.130;24.762;2023-06-22T10:04:11;100040.19;;;33.63;34.73
28630;BME280;15817;42.130;24.762;2023-06-22T10:06:36;100042.50;;;33.77;35.11
28630;BME280;15817;42.130;24.762;2023-06-22T10:09:07;100039.41;;;33.43;35.93
28630;BME280;15817;42.130;24.762;2023-06-22T10:11:33;100038.72;;;33.68;35.38
28630;BME280;15817;42.130;24.762;2023-06-22T10:14:01;100032.41;;;34.13;35.20
28630;BME280;15817;42.130;24.762;2023-06-22T10:16:30;100031.72;;;33.37;37.34
28630;BME280;15817;42.130;24.762;2023-06-22T10:18:57;100030.81;;;32.90;36.62
28630;BME280;15817;42.130;24.762;2023-06-22T10:21:25;100023.69;;;32.68;36.20
28630;BME280;15817;42.130;24.762;2023-06-22T10:27:13;100023.09;;;34.14;34.77
28630;BME280;15817;42.130;24.762;2023-06-22T10:29:46;100017.34;;;34.43;34.97
28630;BME280;15817;42.130;24.762;2023-06-22T10:32:46;100021.53;;;34.65;33.90
28630;BME280;15817;42.130;24.762;2023-06-22T10:35:14;100014.50;;;34.88;33.76
28630;BME280;15817;42.130;24.762;2023-06-22T10:37:43;100012.81;;;35.21;33.46
28630;BME280;15817;42.130;24.762;2023-06-22T10:40:15;100014.72;;;35.46;33.16
28630;BME280;15817;42.130;24.762;2023-06-22T10:42:41;100011.19;;;35.62;33.17
28630;BME280;15817;42.130;24.762;2023-06-22T10:45:08;99999.94;;;35.64;31.30
28630;BME280;15817;42.130;24.762;2023-06-22T10:47:37;100001.50;;;34.45;32.04
28630;BME280;15817;42.130;24.762;2023-06-22T10:50:03;99983.66;;;34.39;32.12
28630;BME280;15817;42.130;24.762;2023-06-22T10:52:30;99987.97;;;34.77;32.11
28630;BME280;15817;42.130;24.762;2023-06-22T10:54:55;99978.41;;;35.15;32.32
28630;BME280;15817;42.130;24.762;2023-06-22T10:57:24;99988.06;;;35.37;31.95
28630;BME280;15817;42.130;24.762;2023-06-22T10:59:50;99972.19;;;35.47;31.79
28630;BME280;15817;42.130;24.762;2023-06-22T11:02:16;99974.69;;;35.67;31.40
28630;BME280;15817;42.130;24.762;2023-06-22T11:04:41;99980.22;;;35.67;32.07
28630;BME280;15817;42.130;24.762;2023-06-22T11:07:08;99973.91;;;35.74;31.47
28630;BME280;15817;42.130;24.762;2023-06-22T11:09:34;99965.50;;;35.66;31.33
28630;BME280;15817;42.130;24.762;2023-06-22T11:12:00;99968.19;;;35.76;30.98
28630;BME280;15817;42.130;24.762;2023-06-22T11:14:29;99976.25;;;35.69;32.18
28630;BME280;15817;42.130;24.762;2023-06-22T11:17:02;99976.50;;;35.84;32.87
28630;BME280;15817;42.130;24.762;2023-06-22T11:19:28;99967.88;;;35.87;32.79
28630;BME280;15817;42.130;24.762;2023-06-22T11:21:56;99970.00;;;34.99;31.71
28630;BME280;15817;42.130;24.762;2023-06-22T11:24:24;99977.53;;;35.41;31.07
28630;BME280;15817;42.130;24.762;2023-06-22T11:26:50;99979.47;;;35.56;31.51
28630;BME280;15817;42.130;24.762;2023-06-22T11:29:16;99972.16;;;35.81;31.69
28630;BME280;15817;42.130;24.762;2023-06-22T11:31:48;99969.41;;;35.89;31.44
28630;BME280;15817;42.130;24.762;2023-06-22T11:34:13;99962.34;;;35.95;31.12
28630;BME280;15817;42.130;24.762;2023-06-22T11:36:40;99975.53;;;36.09;31.16
28630;BME280;15817;42.130;24.762;2023-06-22T11:39:08;99972.53;;;35.86;31.99
28630;BME280;15817;42.130;24.762;2023-06-22T11:41:35;99967.19;;;35.85;31.50
28630;BME280;15817;42.130;24.762;2023-06-22T11:44:01;99959.22;;;35.90;31.36
28630;BME280;15817;42.130;24.762;2023-06-22T11:46:26;99972.94;;;36.00;30.28
28630;BME280;15817;42.130;24.762;2023-06-22T11:48:55;99959.03;;;35.91;30.25
28630;BME280;15817;42.130;24.762;2023-06-22T11:51:21;99968.53;;;35.89;31.35
28630;BME280;15817;42.130;24.762;2023-06-22T11:54:07;99968.72;;;35.19;31.65
28630;BME280;15817;42.130;24.762;2023-06-22T11:56:35;99961.94;;;35.06;31.89
28630;BME280;15817;42.130;24.762;2023-06-22T11:59:04;99955.19;;;35.42;32.12
28630;BME280;15817;42.130;24.762;2023-06-22T12:01:30;99960.16;;;35.65;31.78
28630;BME280;15817;42.130;24.762;2023-06-22T12:03:58;99956.16;;;35.67;32.77
28630;BME280;15817;42.130;24.762;2023-06-22T12:06:24;99964.22;;;35.44;32.83
28630;BME280;15817;42.130;24.762;2023-06-22T12:08:50;99959.25;;;35.56;33.28
28630;BME280;15817;42.130;24.762;2023-06-22T12:11:18;99957.75;;;35.70;32.97
28630;BME280;15817;42.130;24.762;2023-06-22T12:13:49;99940.78;;;35.65;33.16
28630;BME280;15817;42.130;24.762;2023-06-22T12:16:15;99945.78;;;35.61;33.42
28630;BME280;15817;42.130;24.762;2023-06-22T12:18:50;99949.41;;;35.53;32.94
28630;BME280;15817;42.130;24.762;2023-06-22T12:21:16;99941.81;;;35.64;33.17
28630;BME280;15817;42.130;24.762;2023-06-22T12:23:42;99938.34;;;35.53;32.35
28630;BME280;15817;42.130;24.762;2023-06-22T12:26:07;99931.72;;;35.46;32.92
28630;BME280;15817;42.130;24.762;2023-06-22T12:28:36;99929.50;;;35.50;31.98
28630;BME280;15817;42.130;24.762;2023-06-22T12:31:04;99936.75;;;35.51;32.24
28630;BME280;15817;42.130;24.762;2023-06-22T12:33:36;99934.19;;;35.57;32.53
28630;BME280;15817;42.130;24.762;2023-06-22T12:36:02;99933.44;;;35.47;32.27
28630;BME280;15817;42.130;24.762;2023-06-22T12:38:30;99937.69;;;35.00;33.22
28630;BME280;15817;42.130;24.762;2023-06-22T12:40:56;99924.81;;;34.65;33.19
28630;BME280;15817;42.130;24.762;2023-06-22T12:43:21;99927.94;;;34.44;34.26
28630;BME280;15817;42.130;24.762;2023-06-22T12:45:47;99926.06;;;34.27;34.37
28630;BME280;15817;42.130;24.762;2023-06-22T12:48:13;99916.66;;;34.02;34.45
28630;BME280;15817;42.130;24.762;2023-06-22T12:50:38;99909.16;;;33.94;34.33
28630;BME280;15817;42.130;24.762;2023-06-22T12:53:04;99916.63;;;33.84;35.28
28630;BME280;15817;42.130;24.762;2023-06-22T12:55:31;99909.03;;;33.68;35.85
28630;BME280;15817;42.130;24.762;2023-06-22T12:58:00;99906.88;;;33.62;35.73
28630;BME280;15817;42.130;24.762;2023-06-22T13:00:26;99903.19;;;33.54;35.53
28630;BME280;15817;42.130;24.762;2023-06-22T13:02:54;99904.66;;;33.48;36.17